createdAt,value
2018-02-01T00:00:06.071Z,69.17
2018-02-01T00:02:33.698Z,71.47
2018-02-01T00:05:02.910Z,72.20
2018-02-01T00:07:30.425Z,76.50
2018-02-01T00:09:58.018Z,76.50
2018-02-01T00:12:25.792Z,71.67
2018-02-01T00:14:53.322Z,78.97
2018-02-01T00:17:20.892Z,77.97
2018-02-01T00:19:49.190Z,69.23
2018-02-01T00:22:19.915Z,73.53
2018-02-01T00:24:48.371Z,73.47
2018-02-01T00:27:16.246Z,65.20
2018-02-01T00:29:43.773Z,70.43
2018-02-01T00:32:11.213Z,69.00
2018-02-01T00:34:38.683Z,67.27
2018-02-01T00:37:06.499Z,62.47
2018-02-01T00:39:34.113Z,64.50
2018-02-01T00:42:01.593Z,67.70
2018-02-01T00:44:29.876Z,62.33
2018-02-01T00:46:57.483Z,56.73
2018-02-01T00:49:25.924Z,63.43
2018-02-01T00:51:53.476Z,61.20
2018-02-01T00:54:20.994Z,60.03
2018-02-01T00:56:48.574Z,59.97
2018-02-01T00:59:16.080Z,53.23
2018-02-01T01:01:44.679Z,61.00
2018-02-01T01:04:12.209Z,55.47
2018-02-01T01:06:40.372Z,65.93
2018-02-01T01:09:08.334Z,65.37
2018-02-01T01:11:35.796Z,61.00
2018-02-01T01:14:03.519Z,59.37
2018-02-01T01:16:31.889Z,56.37
2018-02-01T01:18:59.516Z,55.07
2018-02-01T01:21:27.008Z,59.80
2018-02-01T01:23:54.478Z,65.60
2018-02-01T01:26:22.065Z,59.83
2018-02-01T01:28:49.539Z,64.00
2018-02-01T01:31:17.005Z,69.40
2018-02-01T01:33:44.457Z,65.17
2018-02-01T01:36:12.472Z,62.23
2018-02-01T01:38:39.932Z,69.13
2018-02-01T01:41:07.393Z,65.13
2018-02-01T01:43:34.858Z,65.07
2018-02-01T01:46:11.066Z,67.40
2018-02-01T01:48:38.619Z,67.07
2018-02-01T01:51:06.075Z,68.10
2018-02-01T01:53:33.539Z,74.73
2018-02-01T01:56:01.870Z,69.20
2018-02-01T01:58:29.547Z,73.57
2018-02-01T02:00:57.010Z,67.07
2018-02-01T02:03:24.503Z,77.50
2018-02-01T02:05:51.955Z,77.73
2018-02-01T02:08:19.433Z,71.30
2018-02-01T02:10:46.883Z,73.60
2018-02-01T02:13:14.329Z,81.47
2018-02-01T02:15:41.790Z,77.17
2018-02-01T02:18:09.250Z,90.00
2018-02-01T02:20:36.718Z,81.27
2018-02-01T02:23:04.160Z,86.80
2018-02-01T02:25:31.614Z,88.67
2018-02-01T02:27:59.095Z,84.60
2018-02-01T02:30:26.554Z,78.13
2018-02-01T02:32:54.006Z,86.00
2018-02-01T02:35:21.463Z,81.23
2018-02-01T02:37:48.921Z,87.30
2018-02-01T02:40:16.438Z,87.67
2018-02-01T02:42:43.959Z,87.50
2018-02-01T02:45:11.453Z,79.23
2018-02-01T02:47:38.922Z,89.60
2018-02-01T02:50:06.398Z,84.17
2018-02-01T02:52:34.051Z,75.73
2018-02-01T02:55:01.556Z,81.13
2018-02-01T02:57:29.014Z,78.00
2018-02-01T02:59:56.470Z,72.27
2018-02-01T03:02:23.971Z,75.70
2018-02-01T03:04:51.427Z,86.87
2018-02-01T03:07:18.866Z,78.17
2018-02-01T03:09:46.375Z,79.90
2018-02-01T03:12:13.826Z,80.70
2018-02-01T03:14:41.343Z,81.10
2018-02-01T03:17:08.823Z,80.83
2018-02-01T03:19:36.281Z,79.13
2018-02-01T03:22:03.754Z,75.30
2018-02-01T03:24:31.244Z,77.63
2018-02-01T03:26:58.699Z,75.17
2018-02-01T03:29:26.179Z,82.83
2018-02-01T03:31:53.644Z,74.23
2018-02-01T03:34:21.098Z,76.20
2018-02-01T03:36:48.554Z,70.30
2018-02-01T03:39:16.187Z,71.37
2018-02-01T03:41:43.671Z,69.57
2018-02-01T03:44:11.115Z,71.53
2018-02-01T03:46:38.574Z,64.73
2018-02-01T03:49:06.038Z,66.33
2018-02-01T03:51:33.486Z,60.30
2018-02-01T03:54:00.982Z,65.03
2018-02-01T03:56:29.430Z,65.70
2018-02-01T03:58:56.883Z,67.57
2018-02-01T04:01:24.334Z,69.97
2018-02-01T04:03:51.780Z,61.97
2018-02-01T04:06:20.307Z,65.10
2018-02-01T04:08:47.770Z,65.37
2018-02-01T04:11:15.243Z,65.53
2018-02-01T04:13:42.728Z,61.73
2018-02-01T04:16:10.184Z,57.33
2018-02-01T04:18:37.648Z,59.73
2018-02-01T04:21:05.105Z,65.43
2018-02-01T04:23:32.581Z,55.37
2018-02-01T04:26:00.040Z,60.30
2018-02-01T04:28:27.525Z,60.90
2018-02-01T04:30:55.031Z,60.50
2018-02-01T04:33:22.484Z,63.67
2018-02-01T04:35:49.939Z,59.90
2018-02-01T04:38:17.412Z,61.93
2018-02-01T04:40:44.872Z,53.93
2018-02-01T04:43:12.327Z,69.40
2018-02-01T04:45:39.803Z,58.17
2018-02-01T04:48:07.255Z,61.37
2018-02-01T04:50:34.738Z,61.00
2018-02-01T04:53:02.240Z,74.10
2018-02-01T04:55:29.699Z,66.00
2018-02-01T04:57:57.179Z,68.57
2018-02-01T05:00:24.874Z,64.17
2018-02-01T05:02:52.409Z,73.40
2018-02-01T05:05:19.875Z,73.20
2018-02-01T05:07:47.348Z,70.80
2018-02-01T05:10:14.871Z,79.53
2018-02-01T05:12:42.624Z,76.60
2018-02-01T05:15:10.074Z,79.33
2018-02-01T05:17:37.529Z,72.33
2018-02-01T05:20:05.005Z,75.40
2018-02-01T05:22:32.687Z,71.13
2018-02-01T05:25:00.226Z,84.00
2018-02-01T05:27:27.701Z,74.80
2018-02-01T05:29:55.163Z,74.60
2018-02-01T05:32:22.618Z,80.97
2018-02-01T05:34:50.118Z,73.73
2018-02-01T05:37:17.560Z,73.77
2018-02-01T05:39:45.011Z,69.97
2018-02-01T05:42:12.517Z,74.10
2018-02-01T05:44:39.979Z,72.40
2018-02-01T05:47:07.445Z,69.67
2018-02-01T05:49:34.916Z,76.20
2018-02-01T05:52:02.371Z,77.50
2018-02-01T05:54:29.934Z,74.77
2018-02-01T05:56:57.410Z,69.23
2018-02-01T05:59:24.862Z,72.97
2018-02-01T06:01:53.389Z,71.67
2018-02-01T06:04:20.871Z,69.73
2018-02-01T06:06:48.322Z,66.70
2018-02-01T06:09:15.830Z,65.40
2018-02-01T06:11:43.291Z,67.10
2018-02-01T06:14:10.740Z,65.77
2018-02-01T06:16:38.212Z,60.17
2018-02-01T06:19:05.673Z,60.90
2018-02-01T06:21:33.152Z,63.00
2018-02-01T06:24:00.620Z,61.63
2018-02-01T06:26:28.125Z,64.10
2018-02-01T06:28:55.592Z,63.20
2018-02-01T06:31:23.071Z,60.03
2018-02-01T06:33:50.580Z,57.20
2018-02-01T06:36:18.078Z,67.00
2018-02-01T06:38:45.536Z,67.47
2018-02-01T06:41:13.003Z,62.27
2018-02-01T06:43:40.535Z,62.47
2018-02-01T06:46:07.987Z,62.53
2018-02-01T06:48:36.331Z,66.97
2018-02-01T06:51:03.846Z,62.57
2018-02-01T06:53:32.299Z,68.50
2018-02-01T06:55:59.789Z,60.63
2018-02-01T06:58:27.258Z,64.73
2018-02-01T07:00:55.008Z,59.67
2018-02-01T07:03:22.462Z,58.77
2018-02-01T07:05:49.935Z,56.10
2018-02-01T07:08:17.378Z,58.87
2018-02-01T07:10:44.848Z,55.57
2018-02-01T07:13:12.984Z,60.07
2018-02-01T07:15:40.458Z,44.90
2018-02-01T07:18:07.919Z,45.80
2018-02-01T07:20:35.368Z,43.37
2018-02-01T07:23:02.872Z,48.97
2018-02-01T07:25:30.345Z,46.60
2018-02-01T07:27:57.806Z,48.20
2018-02-01T07:30:28.698Z,57.93
2018-02-01T07:32:56.152Z,46.43
2018-02-01T07:35:23.598Z,45.90
2018-02-01T07:37:51.062Z,48.63
2018-02-01T07:40:18.531Z,55.23
2018-02-01T07:42:46.091Z,55.73
2018-02-01T07:45:13.656Z,47.73
2018-02-01T07:47:41.110Z,51.23
2018-02-01T07:50:08.650Z,46.37
2018-02-01T07:52:36.127Z,44.63
2018-02-01T07:55:03.587Z,40.50
2018-02-01T07:57:31.087Z,39.17
2018-02-01T07:59:58.585Z,46.43
2018-02-01T08:02:26.040Z,44.33
2018-02-01T08:04:53.512Z,42.87
2018-02-01T08:07:20.973Z,35.67
2018-02-01T08:09:48.441Z,40.73
2018-02-01T08:12:15.906Z,70.73
2018-02-01T08:14:43.362Z,97.57
2018-02-01T08:17:10.819Z,81.30
2018-02-01T08:19:38.342Z,223.43
2018-02-01T08:22:05.791Z,87.67
2018-02-01T08:24:33.266Z,78.00
2018-02-01T08:27:00.742Z,54.47
2018-02-01T08:29:28.213Z,65.07
2018-02-01T08:31:55.670Z,64.47
2018-02-01T08:34:23.131Z,72.50
2018-02-01T08:36:50.675Z,87.47
2018-02-01T08:39:18.173Z,83.50
2018-02-01T08:41:45.646Z,85.43
2018-02-01T08:44:13.135Z,90.47
2018-02-01T08:46:40.599Z,86.80
2018-02-01T08:49:08.094Z,88.30
2018-02-01T08:51:35.558Z,81.73
2018-02-01T08:54:18.744Z,83.03
2018-02-01T08:56:46.223Z,89.77
2018-02-01T08:59:13.694Z,72.27
2018-02-01T09:01:41.161Z,79.90
2018-02-01T09:04:08.628Z,80.20
2018-02-01T09:06:36.511Z,80.17
2018-02-01T09:09:03.975Z,72.13
2018-02-01T09:11:31.422Z,82.37
2018-02-01T09:13:58.922Z,81.93
2018-02-01T09:16:26.375Z,74.37
2018-02-01T09:18:53.832Z,82.43
2018-02-01T09:21:21.311Z,79.90
2018-02-01T09:23:48.775Z,88.27
2018-02-01T09:26:16.335Z,76.60
2018-02-01T09:28:43.812Z,77.93
2018-02-01T09:31:11.363Z,91.50
2018-02-01T09:33:38.873Z,76.77
2018-02-01T09:36:06.359Z,78.13
2018-02-01T09:38:33.823Z,82.93
2018-02-01T09:41:01.323Z,88.50
2018-02-01T09:43:28.790Z,82.83
2018-02-01T09:45:56.261Z,77.70
2018-02-01T09:48:23.924Z,83.17
2018-02-01T09:50:51.431Z,76.63
2018-02-01T09:53:18.909Z,84.73
2018-02-01T09:55:47.041Z,79.40
2018-02-01T09:58:15.160Z,74.27
2018-02-01T10:00:42.629Z,80.63
2018-02-01T10:03:10.083Z,72.27
2018-02-01T10:05:37.572Z,84.83
2018-02-01T10:08:05.039Z,78.53
2018-02-01T10:10:32.572Z,84.70
2018-02-01T10:13:00.026Z,79.23
2018-02-01T10:15:27.493Z,74.97
2018-02-01T10:17:55.030Z,64.33
2018-02-01T10:20:22.496Z,63.47
2018-02-01T10:22:49.959Z,78.90
2018-02-01T10:25:17.427Z,59.23
2018-02-01T10:27:44.875Z,66.40
2018-02-01T10:30:12.343Z,58.07
2018-02-01T10:32:41.017Z,56.20
2018-02-01T10:35:08.462Z,65.97
2018-02-01T10:37:35.931Z,60.63
2018-02-01T10:40:03.392Z,58.07
2018-02-01T10:42:30.852Z,59.70
2018-02-01T10:44:58.324Z,65.50
2018-02-01T10:47:25.805Z,71.40
2018-02-01T10:49:53.289Z,65.93
2018-02-01T10:52:20.756Z,58.53
2018-02-01T10:54:48.215Z,63.70
2018-02-01T10:57:15.887Z,64.13
2018-02-01T10:59:43.370Z,54.50
2018-02-01T11:02:10.855Z,63.23
2018-02-01T11:04:38.341Z,54.23
2018-02-01T11:07:05.804Z,54.00
2018-02-01T11:09:33.283Z,55.50
2018-02-01T11:12:00.800Z,48.90
2018-02-01T11:14:28.722Z,54.00
2018-02-01T11:16:56.255Z,46.93
2018-02-01T11:19:23.698Z,48.00
2018-02-01T11:21:51.171Z,51.93
2018-02-01T11:24:18.646Z,49.67
2018-02-01T11:26:46.114Z,45.27
2018-02-01T11:29:13.573Z,46.13
2018-02-01T11:31:41.057Z,51.80
2018-02-01T11:34:08.527Z,55.33
2018-02-01T11:36:36.004Z,44.17
2018-02-01T11:39:03.530Z,55.37
2018-02-01T11:41:30.976Z,53.07
2018-02-01T11:43:58.492Z,52.27
2018-02-01T11:46:25.955Z,61.50
2018-02-01T11:48:53.427Z,61.23
2018-02-01T11:51:21.894Z,57.27
2018-02-01T11:53:49.362Z,52.87
2018-02-01T11:56:16.893Z,59.63
2018-02-01T11:58:44.360Z,59.57
2018-02-01T12:01:11.826Z,61.47
2018-02-01T12:03:39.296Z,62.13
2018-02-01T12:06:06.759Z,55.87
2018-02-01T12:08:34.218Z,56.40
2018-02-01T12:11:01.687Z,57.57
2018-02-01T12:13:29.175Z,54.10
2018-02-01T12:15:56.661Z,47.90
2018-02-01T12:18:24.330Z,54.70
2018-02-01T12:20:51.814Z,55.10
2018-02-01T12:23:19.285Z,49.20
2018-02-01T12:25:46.740Z,54.33
2018-02-01T12:28:14.349Z,49.03
2018-02-01T12:30:41.813Z,50.80
2018-02-01T12:33:09.291Z,51.60
2018-02-01T12:35:36.759Z,57.50
2018-02-01T12:38:04.226Z,45.07
2018-02-01T12:40:31.741Z,44.97
2018-02-01T12:42:59.183Z,38.97
2018-02-01T12:45:26.647Z,46.80
2018-02-01T12:47:54.130Z,46.67
2018-02-01T12:50:21.649Z,36.60
2018-02-01T12:52:49.149Z,34.70
2018-02-01T12:55:16.610Z,34.87
2018-02-01T12:57:44.071Z,38.90
2018-02-01T13:00:11.538Z,35.27
2018-02-01T13:02:39.002Z,31.90
2018-02-01T13:05:06.525Z,37.57
2018-02-01T13:07:33.982Z,40.70
2018-02-01T13:10:01.471Z,42.50
2018-02-01T13:12:29.005Z,32.50
2018-02-01T13:14:56.474Z,44.17
2018-02-01T13:17:23.954Z,34.67
2018-02-01T13:19:51.403Z,51.27
2018-02-01T13:22:18.864Z,36.13
2018-02-01T13:24:46.505Z,38.33
2018-02-01T13:27:14.019Z,36.80
2018-02-01T13:29:41.528Z,35.20
2018-02-01T13:32:09.854Z,47.00
2018-02-01T13:34:37.330Z,35.27
2018-02-01T13:37:04.839Z,42.93
2018-02-01T13:39:33.205Z,35.03
2018-02-01T13:42:00.650Z,39.97
2018-02-01T13:44:28.204Z,37.77
2018-02-01T13:46:55.665Z,39.87
2018-02-01T13:49:23.154Z,35.60
2018-02-01T13:51:50.603Z,36.77
2018-02-01T13:54:18.080Z,37.50
2018-02-01T13:56:45.702Z,40.10
2018-02-01T13:59:13.207Z,36.80
2018-02-01T14:01:40.729Z,43.20
2018-02-01T14:04:08.206Z,38.07
2018-02-01T14:06:35.682Z,43.50
2018-02-01T14:09:03.138Z,40.50
2018-02-01T14:11:30.595Z,48.40
2018-02-01T14:13:58.075Z,41.70
2018-02-01T14:16:25.551Z,37.33
2018-02-01T14:18:53.026Z,46.17
2018-02-01T14:21:20.512Z,39.00
2018-02-01T14:23:47.967Z,42.40
2018-02-01T14:26:15.572Z,40.73
2018-02-01T14:28:43.119Z,35.80
2018-02-01T14:31:10.672Z,38.03
2018-02-01T14:33:38.162Z,33.07
2018-02-01T14:36:05.680Z,39.53
2018-02-01T14:38:33.275Z,38.13
2018-02-01T14:41:00.758Z,40.67
2018-02-01T14:43:28.218Z,35.13
2018-02-01T14:45:55.698Z,35.03
2018-02-01T14:48:23.224Z,37.60
2018-02-01T14:50:50.792Z,36.40
2018-02-01T14:53:18.292Z,36.50
2018-02-01T14:55:45.765Z,36.13
2018-02-01T14:58:13.281Z,37.73
2018-02-01T15:00:40.892Z,30.43
2018-02-01T15:03:08.407Z,31.57
2018-02-01T15:05:35.870Z,34.83
2018-02-01T15:08:03.336Z,38.47
2018-02-01T15:10:31.429Z,40.40
2018-02-01T15:12:58.932Z,38.20
2018-02-01T15:15:26.424Z,37.93
2018-02-01T15:17:53.890Z,34.30
2018-02-01T15:20:21.375Z,49.80
2018-02-01T15:22:48.893Z,40.10
2018-02-01T15:25:16.434Z,46.33
2018-02-01T15:27:43.903Z,38.03
2018-02-01T15:30:11.370Z,45.43
2018-02-01T15:32:38.855Z,35.27
2018-02-01T15:35:06.315Z,37.40
2018-02-01T15:37:33.797Z,37.03
2018-02-01T15:40:01.306Z,37.03
2018-02-01T15:42:30.377Z,38.60
2018-02-01T15:44:57.849Z,40.40
2018-02-01T15:47:25.340Z,42.13
2018-02-01T15:49:52.808Z,38.53
2018-02-01T15:52:20.365Z,42.40
2018-02-01T15:54:47.888Z,44.20
2018-02-01T15:57:15.491Z,44.80
2018-02-01T15:59:42.991Z,46.50
2018-02-01T16:02:10.482Z,46.40
2018-02-01T16:04:37.946Z,46.50
2018-02-01T16:07:05.414Z,46.23
2018-02-01T16:09:32.923Z,48.33
2018-02-01T16:12:00.534Z,50.43
2018-02-01T16:14:28.011Z,40.03
2018-02-01T16:16:55.708Z,30.27
2018-02-01T16:19:23.233Z,16.80
2018-02-01T16:21:50.735Z,12.53
2018-02-01T16:24:18.222Z,6.90
2018-02-01T16:26:45.785Z,6.00
2018-02-01T16:29:13.348Z,4.50
2018-02-01T16:31:40.965Z,3.97
2018-02-01T16:34:08.446Z,3.67
2018-02-01T16:36:35.974Z,4.27
2018-02-01T16:39:03.549Z,3.33
2018-02-01T16:41:31.008Z,2.70
2018-02-01T16:43:58.500Z,2.50
2018-02-01T16:46:25.946Z,4.80
2018-02-01T16:48:54.171Z,2.57
2018-02-01T16:51:21.983Z,3.80
2018-02-01T16:53:49.441Z,3.40
2018-02-01T16:56:17.022Z,3.40
2018-02-01T16:58:44.517Z,3.57
2018-02-01T17:01:11.990Z,3.03
2018-02-01T17:03:39.444Z,3.77
2018-02-01T17:06:06.902Z,4.93
2018-02-01T17:08:34.341Z,3.23
2018-02-01T17:11:01.826Z,3.37
2018-02-01T17:13:29.290Z,2.53
2018-02-01T17:15:56.788Z,2.70
2018-02-01T17:18:24.250Z,3.80
2018-02-01T17:20:51.761Z,4.13
2018-02-01T17:23:19.402Z,4.37
2018-02-01T17:25:46.851Z,3.80
2018-02-01T17:28:14.660Z,3.53
2018-02-01T17:30:42.698Z,4.07
2018-02-01T17:33:10.163Z,5.57
2018-02-01T17:35:37.669Z,4.60
2018-02-01T17:38:05.120Z,3.97
2018-02-01T17:40:32.581Z,4.30
2018-02-01T17:43:00.070Z,4.40
2018-02-01T17:45:27.525Z,3.10
2018-02-01T17:47:54.993Z,3.57
2018-02-01T17:50:22.531Z,4.03
2018-02-01T17:52:49.987Z,4.20
2018-02-01T17:55:17.521Z,4.20
2018-02-01T17:57:45.026Z,3.83
2018-02-01T18:00:12.520Z,4.13
2018-02-01T18:02:40.002Z,6.50
2018-02-01T18:05:08.035Z,3.63
2018-02-01T18:07:35.514Z,4.23
2018-02-01T18:10:02.991Z,6.07
2018-02-01T18:12:30.562Z,3.43
2018-02-01T18:14:58.119Z,4.97
2018-02-01T18:17:25.569Z,3.50
2018-02-01T18:19:53.102Z,3.37
2018-02-01T18:22:20.715Z,3.90
2018-02-01T18:24:48.180Z,3.10
2018-02-01T18:27:15.768Z,3.50
2018-02-01T18:29:43.296Z,4.50
2018-02-01T18:32:10.760Z,5.13
2018-02-01T18:34:38.525Z,4.47
2018-02-01T18:37:06.035Z,3.83
2018-02-01T18:39:33.550Z,3.20
2018-02-01T18:42:01.045Z,3.50
2018-02-01T18:44:28.613Z,3.40
2018-02-01T18:46:56.087Z,4.70
2018-02-01T18:49:23.549Z,3.73
2018-02-01T18:51:51.014Z,3.93
2018-02-01T18:54:18.474Z,4.53
2018-02-01T18:56:45.930Z,4.47
2018-02-01T18:59:13.407Z,5.37
2018-02-01T19:01:40.922Z,4.90
2018-02-01T19:04:08.397Z,6.77
2018-02-01T19:06:35.892Z,6.33
2018-02-01T19:09:03.474Z,5.67
2018-02-01T19:11:30.980Z,5.97
2018-02-01T19:13:58.455Z,6.43
2018-02-01T19:16:25.937Z,11.40
2018-02-01T19:18:53.382Z,8.80
2018-02-01T19:21:20.902Z,10.17
2018-02-01T19:23:48.362Z,6.70
2018-02-01T19:26:16.628Z,8.03
2018-02-01T19:28:44.111Z,7.40
2018-02-01T19:31:11.589Z,8.90
2018-02-01T19:33:39.149Z,8.33
2018-02-01T19:36:06.651Z,7.30
2018-02-01T19:38:34.215Z,7.23
2018-02-01T19:41:01.734Z,7.67
2018-02-01T19:43:29.240Z,7.43
2018-02-01T19:45:56.847Z,8.40
2018-02-01T19:48:28.280Z,6.57
2018-02-01T19:50:55.796Z,6.73
2018-02-01T19:53:23.238Z,6.47
2018-02-01T19:55:50.725Z,6.33
2018-02-01T19:58:18.330Z,6.90
2018-02-01T20:00:46.523Z,5.90
2018-02-01T20:03:14.042Z,6.03
2018-02-01T20:05:41.615Z,5.37
2018-02-01T20:08:09.184Z,5.00
2018-02-01T20:10:37.347Z,6.13
2018-02-01T20:13:04.858Z,5.00
2018-02-01T20:15:32.360Z,5.00
2018-02-01T20:17:59.813Z,4.27
2018-02-01T20:20:27.412Z,4.43
2018-02-01T20:22:54.886Z,4.70
2018-02-01T20:25:22.343Z,4.37
2018-02-01T20:27:49.831Z,4.80
2018-02-01T20:30:17.361Z,4.30
2018-02-01T20:32:44.933Z,4.40
2018-02-01T20:35:12.450Z,4.77
2018-02-01T20:37:40.317Z,5.00
2018-02-01T20:40:07.832Z,5.27
2018-02-01T20:42:35.298Z,4.73
2018-02-01T20:45:02.856Z,5.00
2018-02-01T20:47:30.485Z,4.57
2018-02-01T20:49:57.953Z,4.50
2018-02-01T20:52:25.405Z,4.47
2018-02-01T20:54:52.948Z,3.93
2018-02-01T20:57:20.522Z,4.57
2018-02-01T20:59:49.245Z,4.30
2018-02-01T21:02:17.657Z,4.17
2018-02-01T21:04:45.132Z,4.20
2018-02-01T21:07:12.603Z,4.13
2018-02-01T21:09:40.064Z,3.40
2018-02-01T21:12:07.521Z,4.57
2018-02-01T21:14:35.924Z,4.50
2018-02-01T21:17:03.404Z,3.67
2018-02-01T21:19:30.865Z,3.83
2018-02-01T21:21:58.385Z,4.53
2018-02-01T21:24:26.048Z,4.57
2018-02-01T21:26:53.522Z,3.57
2018-02-01T21:29:20.996Z,7.03
2018-02-01T21:31:48.460Z,3.83
2018-02-01T21:34:16.144Z,3.50
2018-02-01T21:36:43.772Z,3.83
2018-02-01T21:39:11.234Z,3.73
2018-02-01T21:41:38.699Z,3.20
2018-02-01T21:44:06.150Z,4.07
2018-02-01T21:46:33.738Z,3.17
2018-02-01T21:49:01.213Z,2.57
2018-02-01T21:51:29.218Z,3.00
2018-02-01T21:53:56.672Z,3.27
2018-02-01T21:56:24.139Z,3.20
2018-02-01T21:58:51.616Z,3.33
2018-02-01T22:01:19.115Z,4.40
2018-02-01T22:03:46.552Z,2.73
2018-02-01T22:06:14.007Z,3.30
2018-02-01T22:08:41.483Z,3.07
2018-02-01T22:11:08.986Z,2.87
2018-02-01T22:13:36.438Z,2.80
2018-02-01T22:16:03.973Z,2.90
2018-02-01T22:18:31.391Z,3.40
2018-02-01T22:20:58.983Z,2.53
2018-02-01T22:23:26.459Z,2.93
2018-02-01T22:25:53.975Z,2.90
2018-02-01T22:28:21.467Z,2.47
2018-02-01T22:30:48.988Z,2.70
2018-02-01T22:33:17.384Z,2.30
2018-02-01T22:35:45.040Z,4.10
2018-02-01T22:38:12.591Z,2.30
2018-02-01T22:40:40.041Z,2.43
2018-02-01T22:43:07.503Z,2.43
2018-02-01T22:45:34.958Z,1.83
2018-02-01T22:48:02.497Z,2.13
2018-02-01T22:50:30.187Z,1.80
2018-02-01T22:52:57.654Z,2.17
2018-02-01T22:55:25.111Z,1.67
2018-02-01T22:57:52.556Z,1.60
2018-02-01T23:00:21.239Z,4.00
2018-02-01T23:02:49.044Z,2.03
2018-02-01T23:05:16.828Z,5.20
2018-02-01T23:07:45.756Z,1.40
2018-02-01T23:10:13.265Z,1.93
2018-02-01T23:12:43.038Z,1.67
2018-02-01T23:15:10.521Z,1.50
2018-02-01T23:17:37.993Z,2.17
2018-02-01T23:20:06.149Z,1.37
2018-02-01T23:22:37.463Z,1.67
2018-02-01T23:25:05.113Z,1.63
2018-02-01T23:27:32.796Z,1.20
2018-02-01T23:30:01.042Z,1.20
2018-02-01T23:32:29.733Z,1.17
2018-02-01T23:34:58.985Z,2.97
2018-02-01T23:37:26.672Z,1.10
2018-02-01T23:39:55.321Z,1.23
2018-02-01T23:42:22.974Z,1.47
2018-02-01T23:44:50.575Z,1.77
2018-02-01T23:47:20.653Z,1.97
2018-02-01T23:49:48.160Z,0.97
2018-02-01T23:52:15.726Z,1.30
2018-02-01T23:54:43.260Z,1.20
2018-02-01T23:57:10.724Z,4.50
2018-02-01T23:59:38.270Z,1.10
